Latest Weather Observations for Kowanyama

IDQ60801

Issued at 10:08 pm EST Tuesday 26 July 2016 (issued every 30 minutes, with the page automatically refreshed every 10 minutes)

About weather observations | Map of weather stations | Latest weather observations for QLD | Other Formats
Station Details ID: 029038 Name: KOWANYAMA AIRPORT Lat: -15.48 Lon: 141.75 Height: 9.6 m
Data from the previous 72 hours. | See also: Recent months at Kowanyama
Date/Time
EST
Temp
°C
App
Temp
°C
Dew
Point
°C
Rel
Hum
%
Delta-T
°C
Wind Press
QNH
hPa
Press
MSL
hPa
Rain since
9am
mm
Dir  Spd
km/h
Gust
km/h
Spd
kts
Gust
kts
26/10:00pm 22.8 23.3 17.5 72 3.3 SSW 11 17 6 9 1014.3 1014.3 0.0
26/09:30pm 22.8 22.8 17.3 71 3.4 SSW 13 17 7 9 1014.2 1014.2 0.0
26/09:00pm 22.9 22.9 17.1 70 3.6 SSW 13 20 7 11 1014.1 1014.1 0.0
26/08:30pm 23.3 23.3 17.1 68 3.8 SSW 13 19 7 10 1013.8 1013.8 0.0
26/08:00pm 23.7 23.6 17.0 66 4.1 SSW 13 17 7 9 1013.5 1013.5 0.0
26/07:30pm 24.3 23.9 16.3 61 4.9 SSW 13 20 7 11 1013.0 1013.0 0.0
26/07:00pm 25.1 24.4 16.5 59 5.3 SW 15 20 8 11 1012.5 1012.5 0.0
26/06:30pm 26.0 25.5 16.8 57 5.7 WSW 15 19 8 10 1012.2 1012.2 0.0
26/06:00pm 27.9 27.8 15.9 48 7.4 S 11 20 6 11 1011.8 1011.8 0.0
26/05:30pm 30.1 30.4 15.0 40 9.2 SE 7 11 4 6 1011.5 1011.5 0.0
26/05:00pm 30.7 30.4 14.3 36 10.0 SE 9 13 5 7 1011.3 1011.3 0.0
26/04:30pm 31.3 30.4 14.9 37 10.1 SE 13 20 7 11 1011.1 1011.1 0.0
26/04:00pm 31.1 30.6 13.8 34 10.4 NE 9 15 5 8 1011.2 1011.2 0.0
26/03:30pm 30.5 30.0 15.0 39 9.5 E 11 15 6 8 1011.4 1011.4 0.0
26/03:00pm 31.4 31.1 15.4 38 9.9 NNE 11 17 6 9 1011.6 1011.6 0.0
26/02:30pm 31.3 31.1 15.7 39 9.7 NE 11 20 6 11 1011.9 1011.9 0.0
26/02:00pm 30.5 29.0 14.2 37 9.9 E 15 26 8 14 1012.3 1012.3 0.0
26/01:30pm 30.2 29.1 14.3 38 9.6 E 13 19 7 10 1012.6 1012.6 0.0
26/01:00pm 30.1 29.6 16.9 45 8.3 SE 15 24 8 13 1013.2 1013.2 0.0
26/12:30pm 29.6 29.9 16.1 44 8.4 ENE 9 15 5 8 1013.7 1013.7 0.0
26/12:00pm 29.0 28.6 16.2 46 7.9 ENE 13 20 7 11 1014.2 1014.2 0.0
26/11:30am 28.0 27.4 16.6 50 7.1 E 15 24 8 13 1014.6 1014.6 0.0
26/11:00am 27.3 26.3 16.6 52 6.6 E 17 28 9 15 1015.1 1015.1 0.0
26/10:30am 27.0 26.3 16.3 52 6.6 ESE 15 24 8 13 1015.3 1015.3 0.0
26/10:00am 26.0 25.1 16.8 57 5.7 SE 17 24 9 13 1015.6 1015.6 0.0
26/09:30am 25.2 24.3 16.9 60 5.1 ESE 17 24 9 13 1015.5 1015.5 0.0
26/09:00am 24.0 24.5 17.5 67 4.0 SE 11 15 6 8 1015.5 1015.5 0.0
26/08:30am 21.9 23.2 17.5 76 2.7 SE 7 9 4 5 1015.5 1015.5 0.0
26/08:00am 19.8 21.8 17.0 84 1.7 ESE 2 6 1 3 1015.3 1015.3 0.0
26/07:30am 17.6 18.6 16.3 92 0.8 SE 6 7 3 4 1014.9 1014.9 0.0
26/07:00am 16.9 18.7 15.6 92 0.8 CALM 0 0 0 0 1014.6 1014.6 0.0
26/06:30am 17.0 19.0 15.9 93 0.6 CALM 0 0 0 0 1014.2 1014.2 0.0
26/06:00am 17.4 19.4 16.1 92 0.8 CALM 0 0 0 0 1013.9 1013.9 0.0
26/05:30am 17.7 19.8 16.2 91 0.9 CALM 0 0 0 0 1013.5 1013.5 0.0
26/05:00am 18.1 20.3 16.6 91 0.9 CALM 0 0 0 0 1013.4 1013.4 0.0
26/04:30am 18.5 20.8 16.7 89 1.1 CALM 0 0 0 0 1013.2 1013.2 0.0
26/04:00am 18.7 21.0 16.7 88 1.2 CALM 0 0 0 0 1013.3 1013.3 0.0
26/03:30am 19.1 21.4 16.7 86 1.4 CALM 0 0 0 0 1013.3 1013.3 0.0
26/03:00am 19.9 21.4 17.5 86 1.5 SSE 6 7 3 4 1013.4 1013.4 0.0
26/02:30am 20.3 23.0 17.7 85 1.6 CALM 0 0 0 0 1013.5 1013.5 0.0
26/02:00am 20.5 22.1 17.9 85 1.6 S 6 9 3 5 1013.7 1013.7 0.0
26/01:30am 20.4 22.5 18.2 87 1.4 SSW 4 9 2 5 1013.9 1013.9 0.0
26/01:00am 20.5 23.4 18.1 86 1.5 CALM 0 0 0 0 1013.9 1013.9 0.0
26/12:30am 20.8 23.0 18.4 86 1.5 E 4 7 2 4 1014.2 1014.2 0.0
26/12:00am 20.8 23.5 17.8 83 1.9 CALM 0 0 0 0 1014.1 1014.1 0.0
 
Date/Time
EST
Temp
°C
App
Temp
°C
Dew
Point
°C
Rel
Hum
%
Delta-T
°C
Wind Press
QNH
hPa
Press
MSL
hPa
Rain since
9am
mm
Dir  Spd
km/h
Gust
km/h
Spd
kts
Gust
kts
25/11:30pm 22.0 23.7 18.6 81 2.1 SE 7 17 4 9 1014.1 1014.1 0.0
25/11:00pm 21.2 23.2 18.8 86 1.5 S 6 20 3 11 1014.1 1014.1 0.0
25/10:30pm 21.7 23.7 19.1 85 1.6 SSW 7 11 4 6 1013.8 1013.8 0.0
25/10:00pm 22.1 23.8 19.3 84 1.8 SW 9 13 5 7 1013.8 1013.8 0.0
25/09:30pm 22.3 24.0 19.3 83 1.9 SW 9 15 5 8 1013.7 1013.7 0.0
25/09:00pm 22.5 24.6 19.3 82 2.0 SW 7 11 4 6 1013.6 1013.6 0.0
25/08:30pm 22.6 24.2 19.2 81 2.2 SW 9 13 5 7 1013.4 1013.4 0.0
25/08:00pm 23.2 24.8 19.2 78 2.5 WSW 9 13 5 7 1013.0 1013.0 0.0
25/07:30pm 24.1 24.9 17.4 66 4.2 WSW 9 13 5 7 1012.4 1012.4 0.0
25/07:00pm 25.7 26.3 15.4 53 6.2 SE 6 7 3 4 1011.9 1011.9 0.0
25/06:30pm 27.4 27.8 14.8 46 7.6 SE 6 7 3 4 1011.7 1011.7 0.0
25/06:00pm 29.1 28.3 14.1 40 9.0 ESE 11 13 6 7 1011.6 1011.6 0.0
25/05:30pm 30.2 29.4 13.9 37 9.8 ESE 11 19 6 10 1011.4 1011.4 0.0
25/05:00pm 30.6 28.4 13.4 35 10.3 SE 17 24 9 13 1011.2 1011.2 0.0
25/04:30pm 31.1 29.5 13.8 34 10.4 SE 15 22 8 12 1011.1 1011.1 0.0
25/04:00pm 31.3 28.8 14.0 35 10.5 SE 20 30 11 16 1011.2 1011.2 0.0
25/03:30pm 31.3 29.0 14.0 35 10.5 SE 19 30 10 16 1011.2 1011.2 0.0
25/03:00pm 31.4 28.5 14.1 35 10.5 SE 22 30 12 16 1011.5 1011.5 0.0
25/02:30pm 30.8 28.5 14.0 36 10.2 SE 19 28 10 15 1011.9 1011.9 0.0
25/02:00pm 30.9 28.0 14.1 36 10.2 SE 22 30 12 16 1012.4 1012.4 0.0
25/01:30pm 30.2 28.9 15.9 42 8.9 SE 17 26 9 14 1012.8 1012.8 0.0
25/01:00pm 29.9 28.4 15.2 41 9.0 ESE 17 26 9 14 1013.2 1013.2 0.0
25/12:30pm 29.7 27.8 15.8 43 8.6 SE 20 30 11 16 1013.7 1013.7 0.0
25/12:00pm 28.9 27.7 17.1 49 7.4 SSE 19 26 10 14 1014.1 1014.1 0.0
25/11:30am 27.7 27.1 17.5 53 6.4 SE 17 28 9 15 1014.6 1014.6 0.0
25/11:00am 27.6 27.9 18.0 55 6.1 ESE 13 24 7 13 1015.1 1015.1 0.0
25/10:30am 26.2 25.4 18.1 61 5.1 ESE 19 26 10 14 1015.4 1015.4 0.0
25/10:00am 25.6 25.8 18.5 65 4.5 ESE 15 24 8 13 1015.5 1015.5 0.0
25/09:30am 24.7 25.4 18.9 70 3.7 E 13 20 7 11 1015.6 1015.6 0.0
25/09:00am 23.8 25.0 19.1 75 3.0 E 11 15 6 8 1015.5 1015.5 0.0
25/08:30am 21.9 23.5 18.3 80 2.2 SE 7 7 4 4 1015.3 1015.3 0.0
25/08:00am 20.3 23.3 18.4 89 1.2 CALM 0 0 0 0 1015.0 1015.0 0.0
25/07:30am 18.0 20.5 17.2 95 0.5 CALM 0 7 0 4 1014.5 1014.5 0.0
25/07:00am 17.4 19.6 16.6 95 0.5 CALM 0 0 0 0 1014.2 1014.2 0.0
25/06:30am 17.6 19.8 16.6 94 0.6 CALM 0 0 0 0 1013.7 1013.7 0.0
25/06:00am 17.9 20.2 16.8 93 0.7 CALM 0 0 0 0 1013.5 1013.5 0.0
25/05:30am 18.3 20.8 17.3 94 0.6 CALM 0 0 0 0 1013.2 1013.2 0.0
25/05:00am 18.2 20.6 17.0 93 0.7 CALM 0 0 0 0 1012.9 1012.9 0.0
25/04:30am 18.6 21.2 17.4 93 0.7 CALM 0 0 0 0 1012.9 1012.9 0.0
25/04:00am 18.7 21.3 17.4 92 0.8 CALM 0 0 0 0 1013.1 1013.1 0.0
25/03:30am 19.3 21.0 18.0 92 0.8 ESE 6 7 3 4 1013.0 1013.0 0.0
25/03:00am 19.6 22.0 17.9 90 1.0 E 2 7 1 4 1013.0 1013.0 0.0
25/02:30am 19.9 21.7 18.2 90 1.1 ESE 6 7 3 4 1013.3 1013.3 0.0
25/02:00am 20.6 22.4 18.4 87 1.4 ESE 6 7 3 4 1013.3 1013.3 0.0
25/01:30am 21.1 22.1 18.7 86 1.5 E 11 15 6 8 1013.6 1013.6 0.0
25/01:00am 21.0 22.0 18.6 86 1.5 ESE 11 20 6 11 1013.4 1013.4 0.0
25/12:30am 21.2 22.8 19.1 88 1.3 S 9 13 5 7 1012.8 1012.8 0.0
25/12:00am 21.3 22.8 18.9 86 1.5 S 9 13 5 7 1012.9 1012.9 0.0
 
Date/Time
EST
Temp
°C
App
Temp
°C
Dew
Point
°C
Rel
Hum
%
Delta-T
°C
Wind Press
QNH
hPa
Press
MSL
hPa
Rain since
9am
mm
Dir  Spd
km/h
Gust
km/h
Spd
kts
Gust
kts
24/11:30pm 21.3 23.2 19.0 87 1.5 S 7 11 4 6 1013.2 1013.2 0.0
24/11:00pm 21.7 23.9 19.3 86 1.5 SSW 6 7 3 4 1013.3 1013.3 0.0
24/10:30pm 22.0 24.2 19.2 84 1.8 SSW 6 7 3 4 1013.4 1013.4 0.0
24/10:00pm 22.5 24.4 19.7 84 1.8 SSW 9 11 5 6 1013.4 1013.4 0.0
24/09:30pm 22.7 24.7 19.9 84 1.8 SSW 9 11 5 6 1013.5 1013.5 0.0
24/09:00pm 22.9 25.0 20.1 84 1.8 SW 9 13 5 7 1013.4 1013.4 0.0
24/08:30pm 23.1 25.5 20.1 83 1.9 SW 7 9 4 5 1013.2 1013.2 0.0
24/08:00pm 23.7 25.7 20.0 80 2.4 WSW 9 13 5 7 1013.0 1013.0 0.0
24/07:30pm 24.4 26.1 20.1 77 2.8 SW 11 17 6 9 1012.5 1012.5 0.0
24/07:00pm 24.8 26.7 19.8 74 3.2 WSW 9 15 5 8 1012.1 1012.1 0.0
24/06:30pm 26.2 28.1 19.8 68 4.2 W 9 13 5 7 1011.8 1011.8 0.0
24/06:00pm 28.7 30.4 19.3 56 6.1 SW 9 17 5 9 1011.4 1011.4 0.0
24/05:30pm 31.3 31.7 17.2 42 9.0 SE 11 15 6 8 1011.2 1011.2 0.0
24/05:00pm 31.6 31.7 16.4 40 9.6 SE 11 17 6 9 1010.9 1010.9 0.0
24/04:30pm 31.7 31.5 16.8 40 9.4 SSE 13 20 7 11 1010.7 1010.6 0.0
24/04:00pm 32.3 32.2 17.0 40 9.7 ESE 13 20 7 11 1010.6 1010.5 0.0
24/03:30pm 32.4 32.5 17.5 41 9.5 ESE 13 19 7 10 1010.7 1010.6 0.0
24/03:00pm 32.3 33.2 18.5 44 9.0 ESE 11 20 6 11 1011.1 1011.1 0.0
24/02:30pm 31.6 31.4 17.5 43 9.0 SE 15 22 8 12 1011.5 1011.5 0.0
24/02:00pm 30.8 30.9 17.5 45 8.5 ESE 13 26 7 14 1011.9 1011.9 0.0
24/01:30pm 30.5 30.4 17.9 47 8.1 SE 15 24 8 13 1012.4 1012.4 0.0
24/01:00pm 31.1 30.7 18.8 48 8.0 ESE 19 28 10 15 1013.0 1013.0 0.0
24/12:30pm 30.4 31.0 19.4 51 7.2 ESE 15 26 8 14 1013.4 1013.4 0.0
24/12:00pm 29.7 30.1 19.1 53 6.9 ESE 15 24 8 13 1013.8 1013.8 0.0
24/11:30am 29.3 30.2 19.3 55 6.5 ESE 13 22 7 12 1014.2 1014.2 0.0
24/11:00am 28.6 29.2 19.5 58 5.9 ESE 15 22 8 12 1014.6 1014.6 0.0
24/10:30am 27.7 28.1 19.0 59 5.6 ESE 15 20 8 11 1014.6 1014.6 0.0
24/10:00am 27.3 28.4 19.6 62 5.0 ENE 13 20 7 11 1014.8 1014.8 0.0
24/09:30am 26.0 26.6 19.4 67 4.3 ENE 15 20 8 11 1014.8 1014.8 0.0
24/09:00am 25.1 26.7 19.9 73 3.4 ENE 11 20 6 11 1014.7 1014.7 0.0
24/08:30am 23.6 26.0 20.1 81 2.3 ENE 7 13 4 7 1014.5 1014.5 0.0
24/08:00am 21.9 25.5 19.8 88 1.3 CALM 0 0 0 0 1014.4 1014.4 0.0
24/07:30am 18.8 21.4 17.5 92 0.8 CALM 0 0 0 0 1014.2 1014.2 0.0
24/07:00am 18.6 21.2 17.6 94 0.6 CALM 0 0 0 0 1013.8 1013.8 0.0
24/06:30am 18.6 21.2 17.6 94 0.6 CALM 0 0 0 0 1013.4 1013.4 0.0
24/06:00am 18.5 21.0 17.3 93 0.7 CALM 0 0 0 0 1013.0 1013.0 0.0
24/05:30am 18.6 21.2 17.4 93 0.7 CALM 0 0 0 0 1012.6 1012.6 0.0
24/05:00am 18.7 20.5 17.4 92 0.8 NE 4 6 2 3 1012.4 1012.4 0.0
24/04:30am 18.8 20.3 17.5 92 0.8 ENE 6 7 3 4 1012.3 1012.3 0.0
24/04:00am 19.0 20.5 17.7 92 0.8 ENE 6 7 3 4 1012.3 1012.3 0.0
24/03:30am 19.0 21.4 17.1 89 1.2 CALM 0 0 0 0 1012.3 1012.3 0.0
24/03:00am 19.2 21.7 17.3 89 1.2 CALM 0 0 0 0 1012.3 1012.3 0.0
24/02:30am 19.5 22.1 17.5 88 1.2 CALM 0 0 0 0 1012.6 1012.6 0.0
24/02:00am 19.7 22.2 17.3 86 1.5 CALM 0 0 0 0 1012.6 1012.6 0.0
24/01:30am 19.9 21.7 17.5 86 1.5 ENE 4 7 2 4 1012.8 1012.8 0.0
24/01:00am 20.9 22.5 17.9 83 1.9 E 6 7 3 4 1012.9 1012.9 0.0
24/12:30am 20.8 21.2 18.2 85 1.6 ENE 13 26 7 14 1012.7 1012.7 0.0
24/12:00am 21.3 23.2 18.5 84 1.8 SSE 6 7 3 4 1012.1 1012.1 0.0
 
Date/Time
EST
Temp
°C
App
Temp
°C
Dew
Point
°C
Rel
Hum
%
Delta-T
°C
Wind Press
QNH
hPa
Press
MSL
hPa
Rain since
9am
mm
Dir  Spd
km/h
Gust
km/h
Spd
kts
Gust
kts
23/11:30pm 21.3 23.1 18.3 83 1.9 SSW 6 7 3 4 1012.1 1012.1 0.0
23/11:00pm 21.4 23.2 18.2 82 2.0 SSW 6 7 3 4 1012.2 1012.2 0.0
23/10:30pm 21.6 23.2 17.8 79 2.4 WSW 6 6 3 3 1012.2 1012.2 0.0

Other Formats:

Comma delimited format used in spreadsheet applications
http://www.bom.gov.au/fwo/IDQ60801/IDQ60801.94268.axf

JavaScript Object Notation format (JSON) in row-major order
http://www.bom.gov.au/fwo/IDQ60801/IDQ60801.94268.json